sensor_id;sensor_type;location;lat;lon;timestamp;P1;durP1;ratioP1;P2;durP2;ratioP2
9761;SDS011;4920;49.594;11.022;2023-08-06T00:01:06;18.55;;;14.00;;
9761;SDS011;4920;49.594;11.022;2023-08-06T00:03:36;17.50;;;13.00;;
9761;SDS011;4920;49.594;11.022;2023-08-06T00:06:05;15.63;;;12.30;;
9761;SDS011;4920;49.594;11.022;2023-08-06T00:08:34;14.67;;;11.47;;
9761;SDS011;4920;49.594;11.022;2023-08-06T00:11:03;12.00;;;9.87;;
9761;SDS011;4920;49.594;11.022;2023-08-06T00:13:32;11.60;;;8.17;;
9761;SDS011;4920;49.594;11.022;2023-08-06T00:16:08;9.13;;;8.00;;
9761;SDS011;4920;49.594;11.022;2023-08-06T00:18:40;8.93;;;7.40;;
9761;SDS011;4920;49.594;11.022;2023-08-06T00:21:09;7.70;;;6.97;;
9761;SDS011;4920;49.594;11.022;2023-08-06T00:23:40;7.72;;;6.93;;
9761;SDS011;4920;49.594;11.022;2023-08-06T00:26:13;7.80;;;6.90;;
9761;SDS011;4920;49.594;11.022;2023-08-06T00:28:42;6.80;;;6.20;;
9761;SDS011;4920;49.594;11.022;2023-08-06T00:31:12;7.90;;;6.80;;
9761;SDS011;4920;49.594;11.022;2023-08-06T00:33:43;8.13;;;6.77;;
9761;SDS011;4920;49.594;11.022;2023-08-06T00:36:12;8.70;;;6.90;;
9761;SDS011;4920;49.594;11.022;2023-08-06T00:38:41;7.37;;;6.63;;
9761;SDS011;4920;49.594;11.022;2023-08-06T00:41:11;10.33;;;7.80;;
9761;SDS011;4920;49.594;11.022;2023-08-06T00:43:40;9.47;;;7.50;;
9761;SDS011;4920;49.594;11.022;2023-08-06T00:46:10;9.03;;;6.37;;
9761;SDS011;4920;49.594;11.022;2023-08-06T00:48:39;10.00;;;6.40;;
9761;SDS011;4920;49.594;11.022;2023-08-06T00:51:11;5.97;;;5.30;;
9761;SDS011;4920;49.594;11.022;2023-08-06T00:53:40;7.00;;;5.37;;
9761;SDS011;4920;49.594;11.022;2023-08-06T00:56:09;6.90;;;5.50;;
9761;SDS011;4920;49.594;11.022;2023-08-06T00:58:39;8.03;;;5.40;;
9761;SDS011;4920;49.594;11.022;2023-08-06T01:01:08;7.67;;;6.03;;
9761;SDS011;4920;49.594;11.022;2023-08-06T01:03:37;9.40;;;6.43;;
9761;SDS011;4920;49.594;11.022;2023-08-06T01:06:06;6.93;;;6.00;;
9761;SDS011;4920;49.594;11.022;2023-08-06T01:08:40;7.67;;;5.47;;
9761;SDS011;4920;49.594;11.022;2023-08-06T01:11:21;9.73;;;6.47;;
9761;SDS011;4920;49.594;11.022;2023-08-06T01:13:58;9.87;;;6.30;;
9761;SDS011;4920;49.594;11.022;2023-08-06T01:16:34;6.97;;;5.67;;
9761;SDS011;4920;49.594;11.022;2023-08-06T01:19:15;7.37;;;6.13;;
9761;SDS011;4920;49.594;11.022;2023-08-06T01:21:46;7.37;;;6.43;;
9761;SDS011;4920;49.594;11.022;2023-08-06T01:24:16;10.10;;;7.10;;
9761;SDS011;4920;49.594;11.022;2023-08-06T01:26:47;7.97;;;6.83;;
9761;SDS011;4920;49.594;11.022;2023-08-06T01:29:24;8.33;;;6.60;;
9761;SDS011;4920;49.594;11.022;2023-08-06T01:32:03;8.50;;;6.93;;
9761;SDS011;4920;49.594;11.022;2023-08-06T01:34:35;11.60;;;6.90;;
9761;SDS011;4920;49.594;11.022;2023-08-06T01:37:09;7.17;;;5.13;;
9761;SDS011;4920;49.594;11.022;2023-08-06T01:39:39;6.57;;;5.10;;
9761;SDS011;4920;49.594;11.022;2023-08-06T01:42:10;10.37;;;6.13;;
9761;SDS011;4920;49.594;11.022;2023-08-06T01:44:40;6.87;;;5.60;;
9761;SDS011;4920;49.594;11.022;2023-08-06T01:47:09;7.80;;;6.17;;
9761;SDS011;4920;49.594;11.022;2023-08-06T01:49:38;8.57;;;6.93;;
9761;SDS011;4920;49.594;11.022;2023-08-06T01:52:08;8.93;;;6.23;;
9761;SDS011;4920;49.594;11.022;2023-08-06T01:54:37;8.17;;;5.80;;
9761;SDS011;4920;49.594;11.022;2023-08-06T01:57:07;9.00;;;5.97;;
9761;SDS011;4920;49.594;11.022;2023-08-06T01:59:36;6.40;;;5.43;;
9761;SDS011;4920;49.594;11.022;2023-08-06T02:02:05;7.67;;;5.30;;
9761;SDS011;4920;49.594;11.022;2023-08-06T02:04:34;7.03;;;5.33;;
9761;SDS011;4920;49.594;11.022;2023-08-06T02:07:03;7.60;;;5.93;;
9761;SDS011;4920;49.594;11.022;2023-08-06T02:09:34;6.90;;;6.20;;
9761;SDS011;4920;49.594;11.022;2023-08-06T02:12:03;6.20;;;5.60;;
9761;SDS011;4920;49.594;11.022;2023-08-06T02:14:32;8.67;;;6.20;;
9761;SDS011;4920;49.594;11.022;2023-08-06T02:17:02;8.80;;;6.63;;
9761;SDS011;4920;49.594;11.022;2023-08-06T02:19:30;7.53;;;6.73;;
9761;SDS011;4920;49.594;11.022;2023-08-06T02:21:59;6.43;;;5.77;;
9761;SDS011;4920;49.594;11.022;2023-08-06T02:24:29;6.33;;;5.03;;
9761;SDS011;4920;49.594;11.022;2023-08-06T02:26:59;7.13;;;5.23;;
9761;SDS011;4920;49.594;11.022;2023-08-06T02:29:28;6.20;;;4.80;;
9761;SDS011;4920;49.594;11.022;2023-08-06T02:31:57;5.83;;;5.10;;
9761;SDS011;4920;49.594;11.022;2023-08-06T02:34:28;6.03;;;4.73;;
9761;SDS011;4920;49.594;11.022;2023-08-06T02:36:57;6.83;;;5.17;;
9761;SDS011;4920;49.594;11.022;2023-08-06T02:39:26;9.07;;;6.20;;
9761;SDS011;4920;49.594;11.022;2023-08-06T02:41:57;7.17;;;5.63;;
9761;SDS011;4920;49.594;11.022;2023-08-06T02:44:30;9.40;;;5.70;;
9761;SDS011;4920;49.594;11.022;2023-08-06T02:47:00;10.27;;;6.60;;
9761;SDS011;4920;49.594;11.022;2023-08-06T02:49:30;6.80;;;5.83;;
9761;SDS011;4920;49.594;11.022;2023-08-06T02:51:59;9.40;;;6.23;;
9761;SDS011;4920;49.594;11.022;2023-08-06T02:54:28;4.73;;;4.10;;
9761;SDS011;4920;49.594;11.022;2023-08-06T02:56:57;6.10;;;4.07;;
9761;SDS011;4920;49.594;11.022;2023-08-06T02:59:31;5.77;;;5.10;;
9761;SDS011;4920;49.594;11.022;2023-08-06T03:02:05;7.87;;;5.20;;
9761;SDS011;4920;49.594;11.022;2023-08-06T03:04:53;9.00;;;4.50;;
9761;SDS011;4920;49.594;11.022;2023-08-06T03:07:26;5.60;;;5.00;;
9761;SDS011;4920;49.594;11.022;2023-08-06T03:10:02;7.83;;;5.23;;
9761;SDS011;4920;49.594;11.022;2023-08-06T03:12:31;7.80;;;5.47;;
9761;SDS011;4920;49.594;11.022;2023-08-06T03:15:04;9.37;;;6.13;;
9761;SDS011;4920;49.594;11.022;2023-08-06T03:17:34;9.80;;;6.33;;
9761;SDS011;4920;49.594;11.022;2023-08-06T03:20:05;10.83;;;6.17;;
9761;SDS011;4920;49.594;11.022;2023-08-06T03:22:35;12.10;;;7.03;;
9761;SDS011;4920;49.594;11.022;2023-08-06T03:25:06;11.27;;;5.80;;
9761;SDS011;4920;49.594;11.022;2023-08-06T03:27:36;7.03;;;5.57;;
9761;SDS011;4920;49.594;11.022;2023-08-06T03:30:08;7.60;;;5.70;;
9761;SDS011;4920;49.594;11.022;2023-08-06T03:32:39;7.60;;;5.53;;
9761;SDS011;4920;49.594;11.022;2023-08-06T03:35:09;8.27;;;5.97;;
9761;SDS011;4920;49.594;11.022;2023-08-06T03:37:38;7.20;;;5.90;;
9761;SDS011;4920;49.594;11.022;2023-08-06T03:40:07;9.70;;;6.10;;
9761;SDS011;4920;49.594;11.022;2023-08-06T03:42:38;7.00;;;5.47;;
9761;SDS011;4920;49.594;11.022;2023-08-06T03:45:09;6.80;;;5.60;;
9761;SDS011;4920;49.594;11.022;2023-08-06T03:47:39;7.07;;;5.50;;
9761;SDS011;4920;49.594;11.022;2023-08-06T03:50:09;9.07;;;5.50;;
9761;SDS011;4920;49.594;11.022;2023-08-06T03:52:38;7.67;;;5.67;;
9761;SDS011;4920;49.594;11.022;2023-08-06T03:55:07;10.87;;;6.00;;
9761;SDS011;4920;49.594;11.022;2023-08-06T03:57:36;8.23;;;6.20;;
9761;SDS011;4920;49.594;11.022;2023-08-06T04:00:06;9.27;;;6.07;;
9761;SDS011;4920;49.594;11.022;2023-08-06T04:02:47;9.30;;;6.63;;
9761;SDS011;4920;49.594;11.022;2023-08-06T04:05:17;9.37;;;6.90;;
9761;SDS011;4920;49.594;11.022;2023-08-06T04:07:46;13.83;;;7.70;;
9761;SDS011;4920;49.594;11.022;2023-08-06T04:10:15;12.77;;;7.10;;
9761;SDS011;4920;49.594;11.022;2023-08-06T04:12:44;9.97;;;7.80;;
9761;SDS011;4920;49.594;11.022;2023-08-06T04:15:14;15.30;;;8.13;;
9761;SDS011;4920;49.594;11.022;2023-08-06T04:17:46;11.17;;;8.03;;
9761;SDS011;4920;49.594;11.022;2023-08-06T04:20:16;12.00;;;8.53;;
9761;SDS011;4920;49.594;11.022;2023-08-06T04:22:45;13.50;;;9.03;;
9761;SDS011;4920;49.594;11.022;2023-08-06T04:25:14;12.90;;;8.53;;
9761;SDS011;4920;49.594;11.022;2023-08-06T04:27:48;15.20;;;9.90;;
9761;SDS011;4920;49.594;11.022;2023-08-06T04:30:17;15.50;;;9.67;;
9761;SDS011;4920;49.594;11.022;2023-08-06T04:32:49;13.93;;;9.30;;
9761;SDS011;4920;49.594;11.022;2023-08-06T04:35:18;10.83;;;8.50;;
9761;SDS011;4920;49.594;11.022;2023-08-06T04:37:47;15.53;;;8.37;;
9761;SDS011;4920;49.594;11.022;2023-08-06T04:40:17;8.20;;;7.20;;
9761;SDS011;4920;49.594;11.022;2023-08-06T04:42:46;8.60;;;7.00;;
9761;SDS011;4920;49.594;11.022;2023-08-06T04:45:16;10.47;;;7.50;;
9761;SDS011;4920;49.594;11.022;2023-08-06T04:47:45;7.33;;;6.40;;
9761;SDS011;4920;49.594;11.022;2023-08-06T04:50:15;9.40;;;6.80;;
9761;SDS011;4920;49.594;11.022;2023-08-06T04:52:44;7.97;;;6.60;;
9761;SDS011;4920;49.594;11.022;2023-08-06T04:55:14;8.70;;;7.00;;
9761;SDS011;4920;49.594;11.022;2023-08-06T04:57:43;10.03;;;7.10;;
9761;SDS011;4920;49.594;11.022;2023-08-06T05:00:12;10.03;;;7.17;;
9761;SDS011;4920;49.594;11.022;2023-08-06T05:02:41;7.17;;;6.47;;
9761;SDS011;4920;49.594;11.022;2023-08-06T05:05:10;10.77;;;6.77;;
9761;SDS011;4920;49.594;11.022;2023-08-06T05:07:41;9.13;;;7.20;;
9761;SDS011;4920;49.594;11.022;2023-08-06T05:10:10;7.63;;;6.77;;
9761;SDS011;4920;49.594;11.022;2023-08-06T05:12:39;11.27;;;6.90;;
9761;SDS011;4920;49.594;11.022;2023-08-06T05:15:08;9.83;;;7.13;;
9761;SDS011;4920;49.594;11.022;2023-08-06T05:17:38;8.80;;;5.90;;
9761;SDS011;4920;49.594;11.022;2023-08-06T05:20:07;7.90;;;5.57;;
9761;SDS011;4920;49.594;11.022;2023-08-06T05:22:37;7.15;;;5.70;;
9761;SDS011;4920;49.594;11.022;2023-08-06T05:25:07;7.37;;;5.10;;
9761;SDS011;4920;49.594;11.022;2023-08-06T05:27:37;5.50;;;4.77;;
9761;SDS011;4920;49.594;11.022;2023-08-06T05:30:09;7.35;;;4.60;;
9761;SDS011;4920;49.594;11.022;2023-08-06T05:32:39;5.00;;;4.50;;
9761;SDS011;4920;49.594;11.022;2023-08-06T05:35:08;5.50;;;4.00;;
9761;SDS011;4920;49.594;11.022;2023-08-06T05:37:37;6.25;;;4.13;;
9761;SDS011;4920;49.594;11.022;2023-08-06T05:40:09;5.25;;;4.20;;
9761;SDS011;4920;49.594;11.022;2023-08-06T05:42:38;4.57;;;4.18;;
9761;SDS011;4920;49.594;11.022;2023-08-06T05:45:08;4.35;;;3.85;;
9761;SDS011;4920;49.594;11.022;2023-08-06T05:47:38;6.30;;;4.60;;
9761;SDS011;4920;49.594;11.022;2023-08-06T05:50:07;4.32;;;3.83;;
9761;SDS011;4920;49.594;11.022;2023-08-06T05:52:37;4.18;;;3.78;;
9761;SDS011;4920;49.594;11.022;2023-08-06T05:55:10;7.30;;;3.90;;
9761;SDS011;4920;49.594;11.022;2023-08-06T05:57:39;5.57;;;4.03;;
9761;SDS011;4920;49.594;11.022;2023-08-06T06:00:08;7.63;;;4.00;;
9761;SDS011;4920;49.594;11.022;2023-08-06T06:02:38;5.95;;;3.92;;
9761;SDS011;4920;49.594;11.022;2023-08-06T06:05:07;3.72;;;3.40;;
9761;SDS011;4920;49.594;11.022;2023-08-06T06:07:36;4.60;;;3.60;;
9761;SDS011;4920;49.594;11.022;2023-08-06T06:10:07;5.75;;;3.83;;
9761;SDS011;4920;49.594;11.022;2023-08-06T06:12:39;4.47;;;3.70;;
9761;SDS011;4920;49.594;11.022;2023-08-06T06:15:08;4.78;;;3.78;;
9761;SDS011;4920;49.594;11.022;2023-08-06T06:17:38;5.03;;;3.65;;
9761;SDS011;4920;49.594;11.022;2023-08-06T06:20:07;4.68;;;3.25;;
9761;SDS011;4920;49.594;11.022;2023-08-06T06:22:36;3.35;;;3.05;;
9761;SDS011;4920;49.594;11.022;2023-08-06T06:25:06;4.55;;;3.50;;
9761;SDS011;4920;49.594;11.022;2023-08-06T06:27:36;4.30;;;3.05;;
9761;SDS011;4920;49.594;11.022;2023-08-06T06:30:08;3.35;;;3.05;;
9761;SDS011;4920;49.594;11.022;2023-08-06T06:32:39;3.20;;;2.90;;
9761;SDS011;4920;49.594;11.022;2023-08-06T06:35:08;4.55;;;3.33;;
9761;SDS011;4920;49.594;11.022;2023-08-06T06:37:38;3.58;;;2.97;;
9761;SDS011;4920;49.594;11.022;2023-08-06T06:40:07;4.18;;;3.20;;
9761;SDS011;4920;49.594;11.022;2023-08-06T06:42:36;3.70;;;3.20;;
9761;SDS011;4920;49.594;11.022;2023-08-06T06:45:09;3.92;;;3.00;;
9761;SDS011;4920;49.594;11.022;2023-08-06T06:47:38;5.75;;;2.95;;
9761;SDS011;4920;49.594;11.022;2023-08-06T06:50:07;4.95;;;3.10;;
9761;SDS011;4920;49.594;11.022;2023-08-06T06:52:39;3.45;;;3.13;;
9761;SDS011;4920;49.594;11.022;2023-08-06T06:55:09;3.95;;;3.42;;
9761;SDS011;4920;49.594;11.022;2023-08-06T06:57:38;3.80;;;3.40;;
9761;SDS011;4920;49.594;11.022;2023-08-06T07:00:09;3.75;;;3.20;;
9761;SDS011;4920;49.594;11.022;2023-08-06T07:02:39;3.60;;;3.25;;
9761;SDS011;4920;49.594;11.022;2023-08-06T07:05:08;3.80;;;3.40;;
9761;SDS011;4920;49.594;11.022;2023-08-06T07:07:37;7.00;;;3.80;;
9761;SDS011;4920;49.594;11.022;2023-08-06T07:10:07;7.63;;;3.75;;
9761;SDS011;4920;49.594;11.022;2023-08-06T07:12:36;5.07;;;3.70;;
9761;SDS011;4920;49.594;11.022;2023-08-06T07:15:06;5.00;;;3.80;;
9761;SDS011;4920;49.594;11.022;2023-08-06T07:17:36;4.38;;;3.58;;
9761;SDS011;4920;49.594;11.022;2023-08-06T07:20:08;4.10;;;3.60;;
9761;SDS011;4920;49.594;11.022;2023-08-06T07:22:40;4.22;;;3.30;;
9761;SDS011;4920;49.594;11.022;2023-08-06T07:25:09;4.85;;;3.30;;
9761;SDS011;4920;49.594;11.022;2023-08-06T07:27:38;6.70;;;3.75;;
9761;SDS011;4920;49.594;11.022;2023-08-06T07:30:10;3.92;;;3.50;;
9761;SDS011;4920;49.594;11.022;2023-08-06T07:32:41;4.32;;;2.97;;
9761;SDS011;4920;49.594;11.022;2023-08-06T07:35:10;3.90;;;3.08;;
9761;SDS011;4920;49.594;11.022;2023-08-06T07:37:43;4.18;;;3.25;;
9761;SDS011;4920;49.594;11.022;2023-08-06T07:40:12;4.32;;;3.30;;
9761;SDS011;4920;49.594;11.022;2023-08-06T07:42:42;4.80;;;2.97;;
9761;SDS011;4920;49.594;11.022;2023-08-06T07:45:11;4.32;;;3.05;;
9761;SDS011;4920;49.594;11.022;2023-08-06T07:47:46;3.58;;;2.78;;
9761;SDS011;4920;49.594;11.022;2023-08-06T07:50:18;3.42;;;3.08;;
9761;SDS011;4920;49.594;11.022;2023-08-06T07:52:47;3.70;;;2.80;;
9761;SDS011;4920;49.594;11.022;2023-08-06T07:55:16;3.90;;;2.72;;
9761;SDS011;4920;49.594;11.022;2023-08-06T07:57:45;3.08;;;2.67;;
9761;SDS011;4920;49.594;11.022;2023-08-06T08:00:14;4.35;;;2.90;;
9761;SDS011;4920;49.594;11.022;2023-08-06T08:02:43;6.00;;;2.95;;
9761;SDS011;4920;49.594;11.022;2023-08-06T08:05:15;4.75;;;2.47;;
9761;SDS011;4920;49.594;11.022;2023-08-06T08:07:43;3.67;;;2.50;;
9761;SDS011;4920;49.594;11.022;2023-08-06T08:10:15;2.45;;;2.20;;
9761;SDS011;4920;49.594;11.022;2023-08-06T08:12:53;2.47;;;2.10;;
9761;SDS011;4920;49.594;11.022;2023-08-06T08:15:22;2.13;;;1.85;;
9761;SDS011;4920;49.594;11.022;2023-08-06T08:17:53;2.00;;;1.30;;
9761;SDS011;4920;49.594;11.022;2023-08-06T08:20:23;3.70;;;1.60;;
9761;SDS011;4920;49.594;11.022;2023-08-06T08:22:58;2.17;;;1.65;;
9761;SDS011;4920;49.594;11.022;2023-08-06T08:25:28;2.10;;;1.40;;
9761;SDS011;4920;49.594;11.022;2023-08-06T08:28:01;1.52;;;1.17;;
9761;SDS011;4920;49.594;11.022;2023-08-06T08:30:30;1.65;;;1.20;;
9761;SDS011;4920;49.594;11.022;2023-08-06T08:32:58;1.27;;;1.05;;
9761;SDS011;4920;49.594;11.022;2023-08-06T08:35:29;3.67;;;1.00;;
9761;SDS011;4920;49.594;11.022;2023-08-06T08:37:58;1.15;;;0.85;;
9761;SDS011;4920;49.594;11.022;2023-08-06T08:40:28;2.00;;;0.80;;
9761;SDS011;4920;49.594;11.022;2023-08-06T08:43:00;1.08;;;0.60;;
9761;SDS011;4920;49.594;11.022;2023-08-06T08:45:29;1.25;;;0.50;;
9761;SDS011;4920;49.594;11.022;2023-08-06T08:47:59;0.50;;;0.50;;
9761;SDS011;4920;49.594;11.022;2023-08-06T08:50:31;1.48;;;0.60;;
9761;SDS011;4920;49.594;11.022;2023-08-06T08:53:00;0.60;;;0.60;;
9761;SDS011;4920;49.594;11.022;2023-08-06T08:55:29;0.60;;;0.60;;
9761;SDS011;4920;49.594;11.022;2023-08-06T08:57:58;1.77;;;0.70;;
9761;SDS011;4920;49.594;11.022;2023-08-06T09:00:27;0.50;;;0.50;;
9761;SDS011;4920;49.594;11.022;2023-08-06T09:02:57;1.15;;;0.57;;
9761;SDS011;4920;49.594;11.022;2023-08-06T09:05:29;26.33;;;6.45;;
9761;SDS011;4920;49.594;11.022;2023-08-06T09:08:02;4.47;;;1.38;;
9761;SDS011;4920;49.594;11.022;2023-08-06T09:10:32;1.42;;;0.70;;
9761;SDS011;4920;49.594;11.022;2023-08-06T09:13:04;1.60;;;0.60;;
9761;SDS011;4920;49.594;11.022;2023-08-06T09:15:33;1.30;;;0.70;;
9761;SDS011;4920;49.594;11.022;2023-08-06T09:18:08;0.75;;;0.55;;
9761;SDS011;4920;49.594;11.022;2023-08-06T09:20:40;0.50;;;0.40;;
9761;SDS011;4920;49.594;11.022;2023-08-06T09:23:09;1.13;;;0.73;;
9761;SDS011;4920;49.594;11.022;2023-08-06T09:25:39;0.90;;;0.50;;
9761;SDS011;4920;49.594;11.022;2023-08-06T09:28:08;1.30;;;0.50;;
9761;SDS011;4920;49.594;11.022;2023-08-06T09:30:37;1.17;;;0.57;;
9761;SDS011;4920;49.594;11.022;2023-08-06T09:33:07;0.40;;;0.40;;
9761;SDS011;4920;49.594;11.022;2023-08-06T09:35:40;0.80;;;0.30;;
9761;SDS011;4920;49.594;11.022;2023-08-06T09:38:09;1.48;;;0.50;;
9761;SDS011;4920;49.594;11.022;2023-08-06T09:40:39;1.08;;;0.40;;
9761;SDS011;4920;49.594;11.022;2023-08-06T09:43:11;1.35;;;0.50;;
9761;SDS011;4920;49.594;11.022;2023-08-06T09:45:41;1.60;;;0.50;;
9761;SDS011;4920;49.594;11.022;2023-08-06T09:48:10;0.52;;;0.50;;
9761;SDS011;4920;49.594;11.022;2023-08-06T09:50:41;1.38;;;0.52;;
9761;SDS011;4920;49.594;11.022;2023-08-06T09:53:10;1.35;;;0.32;;
9761;SDS011;4920;49.594;11.022;2023-08-06T09:55:40;0.57;;;0.50;;
9761;SDS011;4920;49.594;11.022;2023-08-06T09:58:11;1.00;;;0.45;;
9761;SDS011;4920;49.594;11.022;2023-08-06T10:00:41;0.55;;;0.50;;
9761;SDS011;4920;49.594;11.022;2023-08-06T10:03:10;0.63;;;0.50;;
9761;SDS011;4920;49.594;11.022;2023-08-06T10:05:42;0.55;;;0.55;;
9761;SDS011;4920;49.594;11.022;2023-08-06T10:08:15;1.02;;;0.60;;
9761;SDS011;4920;49.594;11.022;2023-08-06T10:10:44;0.88;;;0.50;;
9761;SDS011;4920;49.594;11.022;2023-08-06T10:13:14;1.33;;;0.40;;
9761;SDS011;4920;49.594;11.022;2023-08-06T10:15:45;0.65;;;0.57;;
9761;SDS011;4920;49.594;11.022;2023-08-06T10:18:14;0.50;;;0.50;;
9761;SDS011;4920;49.594;11.022;2023-08-06T10:20:49;0.50;;;0.50;;
9761;SDS011;4920;49.594;11.022;2023-08-06T10:23:18;0.40;;;0.40;;
9761;SDS011;4920;49.594;11.022;2023-08-06T10:25:53;0.80;;;0.55;;
9761;SDS011;4920;49.594;11.022;2023-08-06T10:28:24;0.50;;;0.50;;
9761;SDS011;4920;49.594;11.022;2023-08-06T10:31:03;0.68;;;0.43;;
9761;SDS011;4920;49.594;11.022;2023-08-06T10:33:42;1.65;;;0.60;;
9761;SDS011;4920;49.594;11.022;2023-08-06T10:36:14;0.30;;;0.30;;
9761;SDS011;4920;49.594;11.022;2023-08-06T10:38:43;0.57;;;0.57;;
9761;SDS011;4920;49.594;11.022;2023-08-06T10:41:17;0.70;;;0.60;;
9761;SDS011;4920;49.594;11.022;2023-08-06T10:43:51;0.40;;;0.40;;
9761;SDS011;4920;49.594;11.022;2023-08-06T10:46:23;0.60;;;0.40;;
9761;SDS011;4920;49.594;11.022;2023-08-06T10:48:55;0.73;;;0.30;;
9761;SDS011;4920;49.594;11.022;2023-08-06T10:51:26;0.35;;;0.35;;
9761;SDS011;4920;49.594;11.022;2023-08-06T10:53:59;0.30;;;0.30;;
9761;SDS011;4920;49.594;11.022;2023-08-06T10:56:27;0.50;;;0.40;;
9761;SDS011;4920;49.594;11.022;2023-08-06T10:58:58;0.30;;;0.30;;
9761;SDS011;4920;49.594;11.022;2023-08-06T11:01:28;0.50;;;0.50;;
9761;SDS011;4920;49.594;11.022;2023-08-06T11:04:00;0.47;;;0.43;;
9761;SDS011;4920;49.594;11.022;2023-08-06T11:06:33;0.40;;;0.40;;
9761;SDS011;4920;49.594;11.022;2023-08-06T11:09:02;1.33;;;0.43;;
9761;SDS011;4920;49.594;11.022;2023-08-06T11:11:31;1.35;;;0.60;;
9761;SDS011;4920;49.594;11.022;2023-08-06T11:14:00;0.57;;;0.45;;
9761;SDS011;4920;49.594;11.022;2023-08-06T11:16:29;0.82;;;0.57;;
9761;SDS011;4920;49.594;11.022;2023-08-06T11:18:59;0.40;;;0.40;;
9761;SDS011;4920;49.594;11.022;2023-08-06T11:21:28;0.40;;;0.38;;
9761;SDS011;4920;49.594;11.022;2023-08-06T11:24:04;1.50;;;0.40;;
9761;SDS011;4920;49.594;11.022;2023-08-06T11:26:43;0.50;;;0.50;;
9761;SDS011;4920;49.594;11.022;2023-08-06T11:29:12;0.55;;;0.55;;
9761;SDS011;4920;49.594;11.022;2023-08-06T11:31:44;0.68;;;0.50;;
9761;SDS011;4920;49.594;11.022;2023-08-06T11:34:13;0.40;;;0.40;;
9761;SDS011;4920;49.594;11.022;2023-08-06T11:36:46;2.13;;;0.60;;
9761;SDS011;4920;49.594;11.022;2023-08-06T11:39:20;0.40;;;0.40;;
9761;SDS011;4920;49.594;11.022;2023-08-06T11:41:51;0.50;;;0.40;;
9761;SDS011;4920;49.594;11.022;2023-08-06T11:44:27;0.50;;;0.50;;
9761;SDS011;4920;49.594;11.022;2023-08-06T11:47:04;0.50;;;0.40;;
9761;SDS011;4920;49.594;11.022;2023-08-06T11:49:37;2.35;;;0.47;;
9761;SDS011;4920;49.594;11.022;2023-08-06T11:52:08;0.50;;;0.50;;
9761;SDS011;4920;49.594;11.022;2023-08-06T11:54:40;0.70;;;0.40;;
9761;SDS011;4920;49.594;11.022;2023-08-06T11:57:10;0.60;;;0.60;;
9761;SDS011;4920;49.594;11.022;2023-08-06T11:59:41;0.63;;;0.57;;
9761;SDS011;4920;49.594;11.022;2023-08-06T12:02:10;1.73;;;0.50;;
9761;SDS011;4920;49.594;11.022;2023-08-06T12:04:59;0.60;;;0.60;;
9761;SDS011;4920;49.594;11.022;2023-08-06T12:07:32;0.65;;;0.50;;
9761;SDS011;4920;49.594;11.022;2023-08-06T12:10:06;0.60;;;0.60;;
9761;SDS011;4920;49.594;11.022;2023-08-06T12:12:38;0.73;;;0.60;;
9761;SDS011;4920;49.594;11.022;2023-08-06T12:15:08;0.63;;;0.57;;
9761;SDS011;4920;49.594;11.022;2023-08-06T12:17:38;0.40;;;0.40;;
9761;SDS011;4920;49.594;11.022;2023-08-06T12:20:07;0.80;;;0.60;;
9761;SDS011;4920;49.594;11.022;2023-08-06T12:22:41;0.40;;;0.40;;
9761;SDS011;4920;49.594;11.022;2023-08-06T12:25:11;0.50;;;0.40;;
9761;SDS011;4920;49.594;11.022;2023-08-06T12:27:42;0.70;;;0.40;;
9761;SDS011;4920;49.594;11.022;2023-08-06T12:30:12;2.17;;;0.57;;
9761;SDS011;4920;49.594;11.022;2023-08-06T12:32:41;1.15;;;0.60;;
9761;SDS011;4920;49.594;11.022;2023-08-06T12:35:10;0.70;;;0.50;;
9761;SDS011;4920;49.594;11.022;2023-08-06T12:37:39;2.33;;;0.63;;
9761;SDS011;4920;49.594;11.022;2023-08-06T12:40:14;0.68;;;0.68;;
9761;SDS011;4920;49.594;11.022;2023-08-06T12:43:02;0.60;;;0.55;;
9761;SDS011;4920;49.594;11.022;2023-08-06T12:45:33;0.40;;;0.40;;
9761;SDS011;4920;49.594;11.022;2023-08-06T12:48:02;0.88;;;0.40;;
9761;SDS011;4920;49.594;11.022;2023-08-06T12:50:35;0.52;;;0.50;;
9761;SDS011;4920;49.594;11.022;2023-08-06T12:53:04;1.13;;;0.70;;
9761;SDS011;4920;49.594;11.022;2023-08-06T12:55:34;0.75;;;0.50;;
9761;SDS011;4920;49.594;11.022;2023-08-06T12:58:04;0.35;;;0.35;;
9761;SDS011;4920;49.594;11.022;2023-08-06T13:00:32;1.08;;;0.57;;
9761;SDS011;4920;49.594;11.022;2023-08-06T13:03:01;0.68;;;0.50;;
9761;SDS011;4920;49.594;11.022;2023-08-06T13:05:31;0.45;;;0.45;;
9761;SDS011;4920;49.594;11.022;2023-08-06T13:08:00;0.63;;;0.40;;
9761;SDS011;4920;49.594;11.022;2023-08-06T13:10:29;0.85;;;0.40;;
9761;SDS011;4920;49.594;11.022;2023-08-06T13:12:59;0.65;;;0.40;;
9761;SDS011;4920;49.594;11.022;2023-08-06T13:15:29;0.68;;;0.40;;
9761;SDS011;4920;49.594;11.022;2023-08-06T13:17:58;1.10;;;0.40;;
9761;SDS011;4920;49.594;11.022;2023-08-06T13:20:29;0.38;;;0.30;;
9761;SDS011;4920;49.594;11.022;2023-08-06T13:23:03;0.40;;;0.40;;
9761;SDS011;4920;49.594;11.022;2023-08-06T13:25:31;0.35;;;0.35;;
9761;SDS011;4920;49.594;11.022;2023-08-06T13:28:05;1.38;;;0.30;;
9761;SDS011;4920;49.594;11.022;2023-08-06T13:30:35;0.40;;;0.35;;
9761;SDS011;4920;49.594;11.022;2023-08-06T13:33:08;0.63;;;0.30;;
9761;SDS011;4920;49.594;11.022;2023-08-06T13:35:38;0.60;;;0.40;;
9761;SDS011;4920;49.594;11.022;2023-08-06T13:38:07;0.40;;;0.40;;
9761;SDS011;4920;49.594;11.022;2023-08-06T13:40:37;0.50;;;0.40;;
9761;SDS011;4920;49.594;11.022;2023-08-06T13:43:08;0.63;;;0.35;;
9761;SDS011;4920;49.594;11.022;2023-08-06T13:45:37;3.08;;;0.40;;
9761;SDS011;4920;49.594;11.022;2023-08-06T13:48:06;0.95;;;0.30;;
9761;SDS011;4920;49.594;11.022;2023-08-06T13:50:39;1.27;;;0.82;;
9761;SDS011;4920;49.594;11.022;2023-08-06T13:53:08;1.40;;;0.40;;
9761;SDS011;4920;49.594;11.022;2023-08-06T13:55:37;3.10;;;0.20;;
9761;SDS011;4920;49.594;11.022;2023-08-06T13:58:06;0.20;;;0.20;;
9761;SDS011;4920;49.594;11.022;2023-08-06T14:00:37;0.60;;;0.20;;
9761;SDS011;4920;49.594;11.022;2023-08-06T14:03:06;0.50;;;0.20;;
9761;SDS011;4920;49.594;11.022;2023-08-06T14:05:35;0.55;;;0.30;;
9761;SDS011;4920;49.594;11.022;2023-08-06T14:08:04;0.73;;;0.20;;
9761;SDS011;4920;49.594;11.022;2023-08-06T14:10:33;0.10;;;0.10;;
9761;SDS011;4920;49.594;11.022;2023-08-06T14:13:02;0.77;;;0.30;;
9761;SDS011;4920;49.594;11.022;2023-08-06T14:15:38;0.25;;;0.25;;
9761;SDS011;4920;49.594;11.022;2023-08-06T14:18:07;0.30;;;0.30;;
9761;SDS011;4920;49.594;11.022;2023-08-06T14:20:36;1.20;;;0.20;;
9761;SDS011;4920;49.594;11.022;2023-08-06T14:23:06;0.63;;;0.40;;
9761;SDS011;4920;49.594;11.022;2023-08-06T14:25:35;0.38;;;0.38;;
9761;SDS011;4920;49.594;11.022;2023-08-06T14:28:05;0.40;;;0.40;;
9761;SDS011;4920;49.594;11.022;2023-08-06T14:30:34;0.75;;;0.50;;
9761;SDS011;4920;49.594;11.022;2023-08-06T14:33:06;0.60;;;0.40;;
9761;SDS011;4920;49.594;11.022;2023-08-06T14:35:52;0.68;;;0.50;;
9761;SDS011;4920;49.594;11.022;2023-08-06T14:38:20;0.95;;;0.73;;
9761;SDS011;4920;49.594;11.022;2023-08-06T14:40:49;0.98;;;0.60;;
9761;SDS011;4920;49.594;11.022;2023-08-06T14:43:18;0.65;;;0.60;;
9761;SDS011;4920;49.594;11.022;2023-08-06T14:45:47;0.63;;;0.63;;
9761;SDS011;4920;49.594;11.022;2023-08-06T14:48:21;2.23;;;0.60;;
9761;SDS011;4920;49.594;11.022;2023-08-06T14:50:52;0.60;;;0.60;;
9761;SDS011;4920;49.594;11.022;2023-08-06T14:53:21;0.87;;;0.60;;
9761;SDS011;4920;49.594;11.022;2023-08-06T14:55:50;0.77;;;0.60;;
9761;SDS011;4920;49.594;11.022;2023-08-06T14:58:20;0.90;;;0.70;;
9761;SDS011;4920;49.594;11.022;2023-08-06T15:01:02;0.60;;;0.60;;
9761;SDS011;4920;49.594;11.022;2023-08-06T15:03:47;0.80;;;0.60;;
9761;SDS011;4920;49.594;11.022;2023-08-06T15:06:16;0.83;;;0.50;;
9761;SDS011;4920;49.594;11.022;2023-08-06T15:08:45;0.50;;;0.50;;
9761;SDS011;4920;49.594;11.022;2023-08-06T15:11:15;0.80;;;0.68;;
9761;SDS011;4920;49.594;11.022;2023-08-06T15:13:44;1.40;;;0.60;;
9761;SDS011;4920;49.594;11.022;2023-08-06T15:16:18;0.70;;;0.70;;
9761;SDS011;4920;49.594;11.022;2023-08-06T15:18:59;0.60;;;0.60;;
9761;SDS011;4920;49.594;11.022;2023-08-06T15:21:29;1.60;;;0.85;;